Terminal Aerodrome Forecast
Issued by NWS Nashville, TN

Home | Current Version | Previous Version | Text Only | Print | Product List | Glossary On
Versions: 1 2 3 4 5 6 7 8 9 10 11 12 13 14 15 16 17 18 19 20 21 22 23 24 25 26
234
FTUS44 KOHX 281120
TAFBNA
TAF
KBNA 281120Z 2812/2912 20007KT P6SM SCT090
     FM281600 24012G20KT P6SM BKN080
     FM282100 30012G22KT P6SM VCSH BKN050 OVC080
     FM290000 33008KT P6SM SCT025 BKN045=

USA.gov is the U.S. government's official web portal to all federal, state and local government web resources and services.